createdAt,value
2016-10-27T00:00:01.077Z,1016.92
2016-10-27T00:00:23.800Z,1017.16
2016-10-27T00:00:45.518Z,1017.16
2016-10-27T00:01:07.239Z,1017.07
2016-10-27T00:01:28.970Z,1017.12
2016-10-27T00:01:50.696Z,1016.92
2016-10-27T00:02:12.448Z,1016.85
2016-10-27T00:02:34.145Z,1016.78
2016-10-27T00:02:55.895Z,1016.91
2016-10-27T00:03:17.628Z,1016.97
2016-10-27T00:03:39.348Z,1017.08
2016-10-27T00:04:01.085Z,1017.01
2016-10-27T00:04:22.857Z,1017.07
2016-10-27T00:04:44.574Z,1017.02
2016-10-27T00:05:06.291Z,1017.12
2016-10-27T00:05:28.023Z,1017.38
2016-10-27T00:05:49.751Z,1017.17
2016-10-27T00:06:11.474Z,1017.41
2016-10-27T00:06:33.192Z,1017.30
2016-10-27T00:06:54.913Z,1017.32
2016-10-27T00:07:16.632Z,1017.49
2016-10-27T00:07:38.356Z,1017.45
2016-10-27T00:08:00.091Z,1017.43
2016-10-27T00:08:21.805Z,1017.43
2016-10-27T00:08:44.533Z,1017.42
2016-10-27T00:09:06.262Z,1017.32
2016-10-27T00:09:27.993Z,1017.29
2016-10-27T00:09:49.710Z,1017.29
2016-10-27T00:10:11.428Z,1017.32
2016-10-27T00:10:33.149Z,1017.34
2016-10-27T00:10:54.871Z,1017.30
2016-10-27T00:11:16.583Z,1017.28
2016-10-27T00:11:38.305Z,1017.32
2016-10-27T00:12:00.026Z,1017.23
2016-10-27T00:12:21.753Z,1017.27
2016-10-27T00:12:43.477Z,1017.34
2016-10-27T00:13:05.201Z,1017.34
2016-10-27T00:13:26.918Z,1017.31
2016-10-27T00:13:48.632Z,1017.24
2016-10-27T00:14:10.349Z,1017.41
2016-10-27T00:14:32.069Z,1017.30
2016-10-27T00:14:53.818Z,1017.23
2016-10-27T00:15:15.529Z,1017.41
2016-10-27T00:15:37.278Z,1017.39
2016-10-27T00:15:58.993Z,1017.35
2016-10-27T00:16:20.710Z,1017.33
2016-10-27T00:16:42.425Z,1017.25
2016-10-27T00:17:04.164Z,1017.49
2016-10-27T00:17:25.885Z,1017.43
2016-10-27T00:17:47.605Z,1017.48
2016-10-27T00:18:09.332Z,1017.43
2016-10-27T00:18:31.051Z,1017.37
2016-10-27T00:18:52.766Z,1017.39
2016-10-27T00:19:14.483Z,1017.25
2016-10-27T00:19:36.216Z,1017.34
2016-10-27T00:19:58.022Z,1017.08
2016-10-27T00:20:19.750Z,1017.11
2016-10-27T00:20:46.258Z,1017.14
2016-10-27T00:21:08.084Z,1017.29
2016-10-27T00:21:29.802Z,1017.33
2016-10-27T00:21:51.516Z,1017.41
2016-10-27T00:22:13.242Z,1017.52
2016-10-27T00:22:34.970Z,1017.42
2016-10-27T00:22:56.700Z,1017.35
2016-10-27T00:23:18.427Z,1017.05
2016-10-27T00:23:40.171Z,1017.29
2016-10-27T00:24:01.891Z,1017.31
2016-10-27T00:24:23.611Z,1017.10
2016-10-27T00:24:45.330Z,1017.16
2016-10-27T00:25:07.042Z,1017.31
2016-10-27T00:25:28.766Z,1017.28
2016-10-27T00:25:50.485Z,1017.26
2016-10-27T00:26:12.208Z,1017.21
2016-10-27T00:26:33.935Z,1017.30
2016-10-27T00:27:00.440Z,1017.62
2016-10-27T00:27:22.165Z,1017.47
2016-10-27T00:27:43.883Z,1017.39
2016-10-27T00:28:05.608Z,1017.47
2016-10-27T00:28:27.326Z,1017.57
2016-10-27T00:28:49.042Z,1017.40
2016-10-27T00:29:10.779Z,1017.39
2016-10-27T00:29:37.279Z,1017.09
2016-10-27T00:29:58.996Z,1017.27
2016-10-27T00:30:20.729Z,1017.38
2016-10-27T00:30:42.461Z,1017.58
2016-10-27T00:31:04.190Z,1017.48
2016-10-27T00:31:25.908Z,1017.23
2016-10-27T00:31:47.632Z,1017.32
2016-10-27T00:32:09.351Z,1017.30
2016-10-27T00:32:31.078Z,1017.20
2016-10-27T00:32:52.798Z,1017.35
2016-10-27T00:33:14.520Z,1017.29
2016-10-27T00:33:36.280Z,1017.32
2016-10-27T00:33:57.998Z,1017.40
2016-10-27T00:34:20.720Z,1017.35
2016-10-27T00:34:42.441Z,1017.23
2016-10-27T00:35:04.175Z,1017.30
2016-10-27T00:35:25.906Z,1017.21
2016-10-27T00:35:47.618Z,1017.37
2016-10-27T00:36:09.341Z,1017.28
2016-10-27T00:36:31.064Z,1017.31
2016-10-27T00:36:52.783Z,1017.26
2016-10-27T00:37:14.501Z,1017.30
2016-10-27T00:37:36.223Z,1017.30
2016-10-27T00:37:57.942Z,1017.40
2016-10-27T00:38:19.659Z,1017.26
2016-10-27T00:38:41.391Z,1017.11
2016-10-27T00:39:03.111Z,1016.97
2016-10-27T00:39:24.839Z,1017.20
2016-10-27T00:39:46.552Z,1017.38
2016-10-27T00:40:08.277Z,1017.27
2016-10-27T00:40:30.001Z,1017.41
2016-10-27T00:40:51.715Z,1017.42
2016-10-27T00:41:13.438Z,1017.35
2016-10-27T00:41:35.155Z,1017.39
2016-10-27T00:41:56.880Z,1017.32
2016-10-27T00:42:18.594Z,1017.23
2016-10-27T00:42:40.306Z,1017.18
2016-10-27T00:43:02.026Z,1017.22
2016-10-27T00:43:23.742Z,1017.12
2016-10-27T00:43:45.465Z,1017.33
2016-10-27T00:44:07.179Z,1017.27
2016-10-27T00:44:28.903Z,1017.24
2016-10-27T00:44:50.619Z,1017.39
2016-10-27T00:45:12.344Z,1017.37
2016-10-27T00:45:34.068Z,1017.44
2016-10-27T00:45:55.797Z,1017.39
2016-10-27T00:46:22.286Z,1017.45
2016-10-27T00:46:43.999Z,1017.29
2016-10-27T00:47:05.717Z,1017.38
2016-10-27T00:47:27.446Z,1017.35
2016-10-27T00:47:49.167Z,1017.23
2016-10-27T00:48:10.884Z,1017.28
2016-10-27T00:48:32.607Z,1017.27
2016-10-27T00:48:54.329Z,1017.35
2016-10-27T00:49:16.053Z,1017.33
2016-10-27T00:49:37.781Z,1017.34
2016-10-27T00:49:59.506Z,1017.24
2016-10-27T00:50:21.218Z,1017.30
2016-10-27T00:50:42.938Z,1017.40
2016-10-27T00:51:04.657Z,1017.45
2016-10-27T00:51:26.372Z,1017.37
2016-10-27T00:51:48.093Z,1017.42
2016-10-27T00:52:09.821Z,1017.26
2016-10-27T00:52:31.543Z,1017.21
2016-10-27T00:52:53.280Z,1017.32
2016-10-27T00:53:15.000Z,1017.01
2016-10-27T00:53:36.722Z,1017.16
2016-10-27T00:53:58.444Z,1017.18
2016-10-27T00:54:20.163Z,1017.35
2016-10-27T00:54:41.893Z,1017.44
2016-10-27T00:55:03.611Z,1017.38
2016-10-27T00:55:25.323Z,1017.28
2016-10-27T00:55:47.049Z,1017.27
2016-10-27T00:56:08.773Z,1017.32
2016-10-27T00:56:30.511Z,1017.25
2016-10-27T00:56:52.227Z,1017.21
2016-10-27T00:57:13.955Z,1017.24
2016-10-27T00:57:35.664Z,1017.25
2016-10-27T00:57:57.394Z,1017.39
2016-10-27T00:58:19.116Z,1017.27
2016-10-27T00:58:40.926Z,1017.23
2016-10-27T00:59:02.647Z,1017.29
2016-10-27T00:59:29.136Z,1017.12
2016-10-27T00:59:50.990Z,1017.13
2016-10-27T01:00:12.706Z,1016.97
2016-10-27T01:00:34.426Z,1017.03
2016-10-27T01:00:56.148Z,1017.11
2016-10-27T01:01:17.877Z,1017.01
2016-10-27T01:01:39.604Z,1017.16
2016-10-27T01:02:01.329Z,1017.23
2016-10-27T01:02:23.047Z,1017.45
2016-10-27T01:02:44.765Z,1017.36
2016-10-27T01:03:06.484Z,1017.30
2016-10-27T01:03:28.210Z,1017.31
2016-10-27T01:03:49.920Z,1017.34
2016-10-27T01:04:11.640Z,1017.26
2016-10-27T01:04:33.360Z,1017.23
2016-10-27T01:04:55.081Z,1017.04
2016-10-27T01:05:16.797Z,1016.83
2016-10-27T01:05:38.519Z,1016.94
2016-10-27T01:06:00.235Z,1017.45
2016-10-27T01:06:26.726Z,1017.34
2016-10-27T01:06:48.447Z,1017.31
2016-10-27T01:07:10.165Z,1017.44
2016-10-27T01:07:31.897Z,1017.42
2016-10-27T01:07:53.622Z,1017.33
2016-10-27T01:08:15.336Z,1017.37
2016-10-27T01:08:37.058Z,1017.39
2016-10-27T01:08:58.774Z,1017.35
2016-10-27T01:09:20.500Z,1017.24
2016-10-27T01:09:43.217Z,1017.14
2016-10-27T01:10:04.960Z,1017.28
2016-10-27T01:10:26.680Z,1017.33
2016-10-27T01:10:48.396Z,1017.27
2016-10-27T01:11:10.123Z,1017.34
2016-10-27T01:11:31.863Z,1017.30
2016-10-27T01:11:53.581Z,1017.25
2016-10-27T01:12:15.300Z,1017.25
2016-10-27T01:12:41.784Z,1017.18
2016-10-27T01:13:03.504Z,1017.12
2016-10-27T01:13:25.219Z,1017.18
2016-10-27T01:13:46.949Z,1017.20
2016-10-27T01:14:08.658Z,1017.13
2016-10-27T01:14:30.387Z,1017.16
2016-10-27T01:14:52.109Z,1017.03
2016-10-27T01:15:13.832Z,1017.04
2016-10-27T01:15:35.551Z,1017.09
2016-10-27T01:15:57.273Z,1017.11
2016-10-27T01:16:18.991Z,1017.13
2016-10-27T01:16:40.719Z,1017.10
2016-10-27T01:17:02.441Z,1017.12
2016-10-27T01:17:24.164Z,1017.15
2016-10-27T01:17:45.876Z,1016.94
2016-10-27T01:18:07.603Z,1016.76
2016-10-27T01:18:29.325Z,1016.99
2016-10-27T01:18:51.041Z,1017.10
2016-10-27T01:19:12.763Z,1017.17
2016-10-27T01:19:34.482Z,1017.11
2016-10-27T01:19:56.209Z,1017.15
2016-10-27T01:20:17.931Z,1017.20
2016-10-27T01:20:39.648Z,1017.26
2016-10-27T01:21:01.373Z,1017.12
2016-10-27T01:21:23.111Z,1017.14
2016-10-27T01:21:44.826Z,1017.05
2016-10-27T01:22:06.546Z,1017.02
2016-10-27T01:22:28.262Z,1017.02
2016-10-27T01:22:49.990Z,1017.11
2016-10-27T01:23:12.721Z,1016.98
2016-10-27T01:23:34.432Z,1016.94
2016-10-27T01:23:56.166Z,1016.89
2016-10-27T01:24:17.885Z,1016.92
2016-10-27T01:24:39.637Z,1016.91
2016-10-27T01:25:01.372Z,1016.81
2016-10-27T01:25:23.099Z,1016.84
2016-10-27T01:25:44.817Z,1016.84
2016-10-27T01:26:06.537Z,1016.81
2016-10-27T01:26:28.252Z,1016.75
2016-10-27T01:26:50.090Z,1016.88
2016-10-27T01:27:11.812Z,1016.94
2016-10-27T01:27:33.530Z,1016.76
2016-10-27T01:27:55.247Z,1016.74
2016-10-27T01:28:16.968Z,1016.78
2016-10-27T01:28:38.696Z,1016.92
2016-10-27T01:29:00.422Z,1016.93
2016-10-27T01:29:22.133Z,1016.86
2016-10-27T01:29:43.851Z,1016.93
2016-10-27T01:30:05.572Z,1016.96
2016-10-27T01:30:27.295Z,1016.84
2016-10-27T01:30:49.012Z,1016.82
2016-10-27T01:31:10.742Z,1016.97
2016-10-27T01:31:32.461Z,1016.93
2016-10-27T01:31:54.179Z,1016.85
2016-10-27T01:32:15.898Z,1016.82
2016-10-27T01:32:37.634Z,1016.78
2016-10-27T01:32:59.350Z,1016.82
2016-10-27T01:33:21.066Z,1016.80
2016-10-27T01:33:42.835Z,1016.73
2016-10-27T01:34:04.551Z,1016.70
2016-10-27T01:34:26.264Z,1016.84
2016-10-27T01:34:47.982Z,1016.82
2016-10-27T01:35:09.702Z,1016.77
2016-10-27T01:35:31.432Z,1016.80
2016-10-27T01:35:53.152Z,1016.67
2016-10-27T01:36:14.873Z,1016.53
2016-10-27T01:36:36.594Z,1016.59
2016-10-27T01:36:58.316Z,1016.76
2016-10-27T01:37:20.032Z,1016.86
2016-10-27T01:37:41.742Z,1016.74
2016-10-27T01:38:03.474Z,1016.73
2016-10-27T01:38:25.193Z,1016.97
2016-10-27T01:38:46.917Z,1016.94
2016-10-27T01:39:13.401Z,1016.89
2016-10-27T01:39:35.115Z,1016.92
2016-10-27T01:39:56.841Z,1016.85
2016-10-27T01:40:18.564Z,1016.74
2016-10-27T01:40:40.275Z,1016.86
2016-10-27T01:41:01.992Z,1016.72
2016-10-27T01:41:24.730Z,1016.70
2016-10-27T01:41:46.452Z,1016.68
2016-10-27T01:42:08.179Z,1016.66
2016-10-27T01:42:29.897Z,1016.75
2016-10-27T01:42:51.624Z,1016.94
2016-10-27T01:43:13.353Z,1017.03
2016-10-27T01:43:37.690Z,1017.08
2016-10-27T01:43:59.413Z,1016.98
2016-10-27T01:44:21.126Z,1016.97
2016-10-27T01:44:42.841Z,1016.95
2016-10-27T01:45:04.557Z,1016.87
2016-10-27T01:45:26.279Z,1016.93
2016-10-27T01:45:48.003Z,1016.91
2016-10-27T01:46:09.735Z,1016.91
2016-10-27T01:46:36.221Z,1016.83
2016-10-27T01:46:57.950Z,1017.01
2016-10-27T01:47:19.651Z,1016.97
2016-10-27T01:47:41.368Z,1016.87
2016-10-27T01:48:03.115Z,1016.87
2016-10-27T01:48:24.850Z,1017.03
2016-10-27T01:48:46.576Z,1016.96
2016-10-27T01:49:08.399Z,1017.03
2016-10-27T01:49:30.123Z,1016.93
2016-10-27T01:49:51.841Z,1017.03
2016-10-27T01:50:13.555Z,1016.96
2016-10-27T01:50:35.279Z,1016.95
2016-10-27T01:50:56.995Z,1016.98
2016-10-27T01:51:18.717Z,1016.98
2016-10-27T01:51:40.436Z,1016.89
2016-10-27T01:52:02.151Z,1016.91
2016-10-27T01:52:23.864Z,1016.95
2016-10-27T01:52:45.583Z,1016.98
2016-10-27T01:53:07.308Z,1016.89
2016-10-27T01:53:29.027Z,1016.81
2016-10-27T01:53:50.757Z,1016.87
2016-10-27T01:54:12.478Z,1016.82
2016-10-27T01:54:34.199Z,1016.88
2016-10-27T01:54:55.913Z,1016.84
2016-10-27T01:55:17.639Z,1016.94
2016-10-27T01:55:39.433Z,1016.88
2016-10-27T01:56:01.173Z,1016.96
2016-10-27T01:56:22.887Z,1016.83
2016-10-27T01:56:44.625Z,1016.85
2016-10-27T01:57:06.352Z,1016.84
2016-10-27T01:57:28.267Z,1016.82
2016-10-27T01:57:49.997Z,1016.93
2016-10-27T01:58:11.716Z,1017.09
2016-10-27T01:58:33.459Z,1016.99
2016-10-27T01:58:55.184Z,1017.07
2016-10-27T01:59:16.922Z,1016.95
2016-10-27T01:59:38.641Z,1017.00
2016-10-27T02:00:00.356Z,1016.95
2016-10-27T02:00:22.072Z,1016.94
2016-10-27T02:00:43.792Z,1016.93
2016-10-27T02:01:05.511Z,1017.10
2016-10-27T02:01:27.234Z,1017.13
2016-10-27T02:01:48.947Z,1017.08
2016-10-27T02:02:10.672Z,1017.07
2016-10-27T02:02:32.414Z,1017.00
2016-10-27T02:02:54.134Z,1016.99
2016-10-27T02:03:15.867Z,1017.02
2016-10-27T02:03:37.579Z,1016.96
2016-10-27T02:03:59.303Z,1017.04
2016-10-27T02:04:21.029Z,1017.10
2016-10-27T02:04:42.744Z,1017.10
2016-10-27T02:05:04.459Z,1017.10
2016-10-27T02:05:26.172Z,1017.11
2016-10-27T02:05:47.891Z,1017.09
2016-10-27T02:06:09.615Z,1017.11
2016-10-27T02:06:31.343Z,1016.77
2016-10-27T02:06:53.065Z,1016.70
2016-10-27T02:07:14.785Z,1016.84
2016-10-27T02:07:36.505Z,1016.99
2016-10-27T02:07:58.223Z,1017.01
2016-10-27T02:08:19.940Z,1017.22
2016-10-27T02:08:41.657Z,1017.25
2016-10-27T02:09:03.379Z,1017.19
2016-10-27T02:09:25.095Z,1017.23
2016-10-27T02:09:46.814Z,1017.16
2016-10-27T02:10:08.535Z,1017.22
2016-10-27T02:10:30.317Z,1017.15
2016-10-27T02:10:52.032Z,1017.14
2016-10-27T02:11:13.747Z,1017.10
2016-10-27T02:11:35.504Z,1017.13
2016-10-27T02:11:57.224Z,1017.13
2016-10-27T02:12:18.943Z,1017.06
2016-10-27T02:12:40.661Z,1016.98
2016-10-27T02:13:02.381Z,1017.06
2016-10-27T02:13:25.095Z,1016.96
2016-10-27T02:13:46.878Z,1017.01
2016-10-27T02:14:09.589Z,1017.04
2016-10-27T02:14:31.303Z,1017.08
2016-10-27T02:14:53.027Z,1016.91
2016-10-27T02:15:14.738Z,1016.77
2016-10-27T02:15:36.462Z,1016.89
2016-10-27T02:15:58.188Z,1016.86
2016-10-27T02:16:19.905Z,1017.08
2016-10-27T02:16:41.627Z,1017.30
2016-10-27T02:17:03.351Z,1017.20
2016-10-27T02:17:25.077Z,1017.29
2016-10-27T02:17:46.793Z,1017.19
2016-10-27T02:18:08.508Z,1017.12
2016-10-27T02:18:30.231Z,1017.18
2016-10-27T02:18:51.948Z,1017.14
2016-10-27T02:19:13.675Z,1017.18
2016-10-27T02:19:35.389Z,1017.16
2016-10-27T02:19:57.125Z,1016.96
2016-10-27T02:20:18.856Z,1016.97
2016-10-27T02:20:40.579Z,1017.01
2016-10-27T02:21:02.298Z,1017.18
2016-10-27T02:21:24.032Z,1017.21
2016-10-27T02:21:45.747Z,1017.10
2016-10-27T02:22:07.471Z,1017.18
2016-10-27T02:22:29.188Z,1017.22
2016-10-27T02:23:17.431Z,1017.20
2016-10-27T02:23:39.149Z,1017.18
2016-10-27T02:24:00.892Z,1017.27
2016-10-27T02:24:22.614Z,1017.07
2016-10-27T02:24:44.332Z,1016.89
2016-10-27T02:25:06.049Z,1017.14
2016-10-27T02:25:27.763Z,1017.00
2016-10-27T02:25:49.478Z,1017.05
2016-10-27T02:26:11.197Z,1017.06
2016-10-27T02:26:32.931Z,1017.33
2016-10-27T02:26:54.648Z,1017.54
2016-10-27T02:27:16.374Z,1017.44
2016-10-27T02:27:38.093Z,1017.31
2016-10-27T02:27:59.808Z,1017.17
2016-10-27T02:28:21.529Z,1016.97
2016-10-27T02:28:43.270Z,1017.14
2016-10-27T02:29:04.996Z,1017.26
2016-10-27T02:29:26.722Z,1017.34
2016-10-27T02:29:53.210Z,1017.29
2016-10-27T02:30:14.928Z,1017.34
2016-10-27T02:30:36.646Z,1017.32
2016-10-27T02:30:58.370Z,1017.17
2016-10-27T02:31:20.091Z,1017.18
2016-10-27T02:31:41.811Z,1017.23
2016-10-27T02:32:03.532Z,1017.35
2016-10-27T02:32:25.254Z,1017.22
2016-10-27T02:32:46.973Z,1017.20
2016-10-27T02:33:08.728Z,1017.15
2016-10-27T02:33:30.455Z,1017.02
2016-10-27T02:33:52.169Z,1017.30
2016-10-27T02:34:13.887Z,1017.19
2016-10-27T02:34:35.608Z,1017.23
2016-10-27T02:34:57.399Z,1017.25
2016-10-27T02:35:19.119Z,1017.29
2016-10-27T02:35:40.833Z,1017.32
2016-10-27T02:36:02.552Z,1017.17
2016-10-27T02:36:24.313Z,1017.05
2016-10-27T02:36:46.069Z,1017.09
2016-10-27T02:37:07.784Z,1017.10
2016-10-27T02:37:29.501Z,1017.29
2016-10-27T02:37:51.222Z,1017.20
2016-10-27T02:38:12.936Z,1017.23
2016-10-27T02:39:01.143Z,1017.36
2016-10-27T02:39:22.876Z,1017.27
2016-10-27T02:39:44.597Z,1017.38
2016-10-27T02:40:06.330Z,1017.34
2016-10-27T02:40:28.063Z,1017.33
2016-10-27T02:40:49.779Z,1017.49
2016-10-27T02:41:11.497Z,1017.52
2016-10-27T02:41:37.987Z,1017.56
2016-10-27T02:41:59.713Z,1017.62
2016-10-27T02:42:21.431Z,1017.53
2016-10-27T02:42:43.162Z,1017.40
2016-10-27T02:43:04.890Z,1017.29
2016-10-27T02:43:26.624Z,1017.23
2016-10-27T02:43:48.343Z,1017.36
2016-10-27T02:44:10.075Z,1017.38
2016-10-27T02:44:31.792Z,1017.51
2016-10-27T02:44:53.512Z,1017.39
2016-10-27T02:45:15.239Z,1017.50
2016-10-27T02:45:36.976Z,1017.56
2016-10-27T02:45:58.696Z,1017.66
2016-10-27T02:46:20.410Z,1017.61
2016-10-27T02:46:42.134Z,1017.40
2016-10-27T02:47:03.875Z,1017.52
2016-10-27T02:47:25.595Z,1017.37
2016-10-27T02:47:47.315Z,1017.62
2016-10-27T02:48:10.042Z,1017.47
2016-10-27T02:48:31.751Z,1017.40
2016-10-27T02:48:53.471Z,1017.55
2016-10-27T02:49:15.194Z,1017.60
2016-10-27T02:49:36.919Z,1017.84
2016-10-27T02:49:58.639Z,1017.79
2016-10-27T02:50:20.353Z,1017.77
2016-10-27T02:50:42.079Z,1017.86
2016-10-27T02:51:03.790Z,1017.82
2016-10-27T02:51:25.524Z,1017.85
2016-10-27T02:51:47.255Z,1017.84
2016-10-27T02:52:08.973Z,1017.77
2016-10-27T02:52:30.697Z,1017.75
2016-10-27T02:52:52.429Z,1017.77
2016-10-27T02:53:14.150Z,1017.76
2016-10-27T02:53:35.879Z,1017.77
2016-10-27T02:53:57.617Z,1017.76
2016-10-27T02:54:19.330Z,1017.72
2016-10-27T02:54:41.049Z,1017.90
2016-10-27T02:55:02.779Z,1017.78
2016-10-27T02:55:24.502Z,1017.72
2016-10-27T02:55:46.234Z,1017.79
2016-10-27T02:56:08.959Z,1017.80
2016-10-27T02:56:30.711Z,1017.74
2016-10-27T02:56:52.429Z,1017.76
2016-10-27T02:57:14.273Z,1017.82
2016-10-27T02:57:36.008Z,1017.73
2016-10-27T02:57:57.721Z,1017.75
2016-10-27T02:58:19.441Z,1017.80
2016-10-27T02:58:41.157Z,1017.80
2016-10-27T02:59:02.875Z,1017.64
2016-10-27T02:59:24.591Z,1017.56
2016-10-27T02:59:46.311Z,1017.80
2016-10-27T03:00:08.031Z,1017.94
2016-10-27T03:00:29.751Z,1017.94
2016-10-27T03:00:51.545Z,1017.94
2016-10-27T03:01:13.261Z,1017.90
2016-10-27T03:01:37.642Z,1017.88
2016-10-27T03:01:59.373Z,1017.88
2016-10-27T03:02:21.095Z,1017.89
2016-10-27T03:02:42.811Z,1017.71
2016-10-27T03:03:04.529Z,1017.69
2016-10-27T03:03:31.024Z,1017.72
2016-10-27T03:03:52.739Z,1017.77
2016-10-27T03:04:14.461Z,1017.90
2016-10-27T03:04:36.182Z,1017.93
2016-10-27T03:04:57.900Z,1017.74
2016-10-27T03:05:19.617Z,1017.69
2016-10-27T03:05:41.333Z,1017.73
2016-10-27T03:06:03.044Z,1017.83
2016-10-27T03:06:24.761Z,1017.93
2016-10-27T03:06:46.489Z,1018.10
2016-10-27T03:07:08.215Z,1018.24
2016-10-27T03:07:29.932Z,1018.24
2016-10-27T03:07:51.652Z,1018.06
2016-10-27T03:08:13.380Z,1018.01
2016-10-27T03:08:35.101Z,1017.95
2016-10-27T03:08:56.815Z,1017.96
2016-10-27T03:09:18.643Z,1017.95
2016-10-27T03:09:40.357Z,1017.94
2016-10-27T03:10:02.075Z,1017.91
2016-10-27T03:10:23.786Z,1017.93
2016-10-27T03:10:45.502Z,1017.97
2016-10-27T03:11:07.227Z,1018.06
2016-10-27T03:11:28.968Z,1018.08
2016-10-27T03:11:50.685Z,1018.04
2016-10-27T03:12:12.405Z,1017.94
2016-10-27T03:12:34.125Z,1018.04
2016-10-27T03:12:55.849Z,1018.00
2016-10-27T03:13:17.567Z,1017.98
2016-10-27T03:13:39.442Z,1017.80
2016-10-27T03:14:01.095Z,1017.74
2016-10-27T03:14:22.828Z,1018.05
2016-10-27T03:14:44.548Z,1017.87
2016-10-27T03:15:06.265Z,1017.89
2016-10-27T03:15:27.982Z,1018.07
2016-10-27T03:15:49.696Z,1018.15
2016-10-27T03:16:11.409Z,1018.16
2016-10-27T03:16:33.123Z,1018.13
2016-10-27T03:16:54.837Z,1018.13
2016-10-27T03:17:16.556Z,1018.12
2016-10-27T03:17:38.271Z,1018.13
2016-10-27T03:17:59.989Z,1018.11
2016-10-27T03:18:21.708Z,1018.13
2016-10-27T03:18:48.193Z,1018.03
2016-10-27T03:19:09.921Z,1018.07
2016-10-27T03:19:31.738Z,1018.07
2016-10-27T03:19:53.359Z,1018.03
2016-10-27T03:20:15.076Z,1018.08
2016-10-27T03:20:36.796Z,1018.09
2016-10-27T03:20:58.519Z,1018.07
2016-10-27T03:21:20.251Z,1018.09
2016-10-27T03:21:41.960Z,1017.86
2016-10-27T03:22:03.677Z,1017.93
2016-10-27T03:22:25.421Z,1018.04
2016-10-27T03:22:47.138Z,1017.94
2016-10-27T03:23:08.882Z,1018.10
2016-10-27T03:23:30.598Z,1018.39
2016-10-27T03:23:52.318Z,1018.36
2016-10-27T03:24:14.036Z,1018.35
2016-10-27T03:24:35.756Z,1018.39
2016-10-27T03:24:57.476Z,1018.32
2016-10-27T03:25:19.196Z,1018.24
2016-10-27T03:25:40.916Z,1018.17
2016-10-27T03:26:02.641Z,1018.19
2016-10-27T03:26:24.373Z,1018.07
2016-10-27T03:26:46.085Z,1018.10
2016-10-27T03:27:07.801Z,1018.05
2016-10-27T03:27:29.514Z,1018.12
2016-10-27T03:27:51.234Z,1018.04
2016-10-27T03:28:13.943Z,1018.00
2016-10-27T03:28:35.675Z,1017.76
2016-10-27T03:28:57.402Z,1018.13
2016-10-27T03:29:19.134Z,1018.26
2016-10-27T03:29:40.887Z,1018.07
2016-10-27T03:30:02.606Z,1018.19
2016-10-27T03:30:24.317Z,1018.20
2016-10-27T03:30:46.051Z,1018.27
2016-10-27T03:31:07.770Z,1018.10
2016-10-27T03:31:29.509Z,1017.96
2016-10-27T03:31:56.000Z,1017.65
2016-10-27T03:32:17.731Z,1017.81
2016-10-27T03:32:39.452Z,1017.81
2016-10-27T03:33:01.176Z,1017.86
2016-10-27T03:33:22.893Z,1017.76
2016-10-27T03:33:44.619Z,1017.91
2016-10-27T03:34:06.356Z,1018.05
2016-10-27T03:34:28.084Z,1017.86
2016-10-27T03:34:49.813Z,1017.92
2016-10-27T03:35:11.534Z,1017.97
2016-10-27T03:35:33.251Z,1017.86
2016-10-27T03:35:54.964Z,1017.90
2016-10-27T03:36:16.693Z,1017.77
2016-10-27T03:36:38.412Z,1017.80
2016-10-27T03:37:01.139Z,1017.78
2016-10-27T03:37:22.861Z,1018.01
2016-10-27T03:37:44.594Z,1017.79
2016-10-27T03:38:07.319Z,1017.65
2016-10-27T03:38:29.049Z,1017.66
2016-10-27T03:38:50.768Z,1017.76
2016-10-27T03:39:12.482Z,1017.73
2016-10-27T03:39:34.201Z,1017.60
2016-10-27T03:39:55.919Z,1017.65
2016-10-27T03:40:18.635Z,1017.94
2016-10-27T03:40:40.358Z,1017.86
2016-10-27T03:41:02.079Z,1017.86
2016-10-27T03:41:23.795Z,1017.85
2016-10-27T03:41:46.517Z,1017.95
2016-10-27T03:42:08.258Z,1018.03
2016-10-27T03:42:29.988Z,1018.03
2016-10-27T03:42:52.700Z,1018.04
2016-10-27T03:43:14.421Z,1018.22
2016-10-27T03:43:36.157Z,1018.17
2016-10-27T03:43:57.881Z,1018.11
2016-10-27T03:44:19.601Z,1017.92
2016-10-27T03:44:41.318Z,1018.14
2016-10-27T03:45:03.034Z,1018.12
2016-10-27T03:45:24.762Z,1018.13
2016-10-27T03:45:46.497Z,1018.04
2016-10-27T03:46:08.211Z,1017.89
2016-10-27T03:46:29.932Z,1018.02
2016-10-27T03:46:51.653Z,1018.11
2016-10-27T03:47:13.369Z,1018.14
2016-10-27T03:47:35.094Z,1018.03
2016-10-27T03:47:56.828Z,1018.15
2016-10-27T03:48:19.545Z,1017.93
2016-10-27T03:48:41.261Z,1018.12
2016-10-27T03:49:03.984Z,1018.22
2016-10-27T03:49:30.478Z,1018.15
2016-10-27T03:49:52.197Z,1018.11
2016-10-27T03:50:13.918Z,1018.13
2016-10-27T03:50:35.646Z,1018.02
2016-10-27T03:50:57.375Z,1017.96
2016-10-27T03:51:19.092Z,1018.00
2016-10-27T03:51:40.812Z,1018.02
2016-10-27T03:52:02.530Z,1018.09
2016-10-27T03:52:24.253Z,1018.15
2016-10-27T03:52:45.985Z,1018.02
2016-10-27T03:53:07.708Z,1017.96
2016-10-27T03:53:29.465Z,1017.96
2016-10-27T03:53:51.178Z,1018.00
2016-10-27T03:54:12.899Z,1018.08
2016-10-27T03:54:34.617Z,1018.00
2016-10-27T03:54:56.331Z,1018.09
2016-10-27T03:55:19.050Z,1018.01
2016-10-27T03:55:40.782Z,1018.12
2016-10-27T03:56:02.510Z,1018.07
2016-10-27T03:56:24.239Z,1018.12
2016-10-27T03:56:45.961Z,1018.24
2016-10-27T03:57:07.690Z,1018.32
2016-10-27T03:57:29.420Z,1018.27
2016-10-27T03:57:51.134Z,1018.07
2016-10-27T03:58:12.860Z,1018.05
2016-10-27T03:58:34.604Z,1018.07
2016-10-27T03:58:56.336Z,1018.19
2016-10-27T03:59:18.056Z,1018.21
2016-10-27T03:59:39.777Z,1018.32
2016-10-27T04:00:01.507Z,1018.29
2016-10-27T04:00:23.219Z,1018.18
2016-10-27T04:00:44.947Z,1018.06
2016-10-27T04:01:06.676Z,1017.99
2016-10-27T04:01:33.163Z,1017.81
2016-10-27T04:01:54.888Z,1018.01
2016-10-27T04:02:16.608Z,1018.05
2016-10-27T04:02:38.341Z,1018.08
2016-10-27T04:03:00.060Z,1017.99
2016-10-27T04:03:21.779Z,1017.96
2016-10-27T04:03:43.509Z,1017.98
2016-10-27T04:04:05.226Z,1017.96
2016-10-27T04:04:26.944Z,1018.17
2016-10-27T04:04:48.690Z,1018.04
2016-10-27T04:05:10.409Z,1018.14
2016-10-27T04:05:32.142Z,1018.11
2016-10-27T04:05:53.865Z,1018.15
2016-10-27T04:06:15.595Z,1018.01
2016-10-27T04:06:37.314Z,1018.10
2016-10-27T04:06:59.046Z,1018.33
2016-10-27T04:07:20.759Z,1018.17
2016-10-27T04:07:42.474Z,1018.02
2016-10-27T04:08:04.195Z,1018.23
2016-10-27T04:08:25.911Z,1017.99
2016-10-27T04:08:47.657Z,1018.26
2016-10-27T04:09:09.382Z,1018.17
2016-10-27T04:09:31.102Z,1018.06
2016-10-27T04:09:52.830Z,1018.13
2016-10-27T04:10:14.547Z,1018.15
2016-10-27T04:10:36.273Z,1018.27
2016-10-27T04:10:58.989Z,1018.14
2016-10-27T04:11:20.713Z,1018.21
2016-10-27T04:11:42.424Z,1018.04
2016-10-27T04:12:04.142Z,1017.92
2016-10-27T04:12:25.861Z,1017.95
2016-10-27T04:12:47.577Z,1018.12
2016-10-27T04:13:09.295Z,1018.00
2016-10-27T04:13:31.104Z,1018.10
2016-10-27T04:13:52.823Z,1018.13
2016-10-27T04:14:14.551Z,1017.96
2016-10-27T04:14:36.262Z,1018.09
2016-10-27T04:14:57.986Z,1018.18
2016-10-27T04:15:19.710Z,1018.20
2016-10-27T04:15:41.429Z,1018.13
2016-10-27T04:16:03.168Z,1018.15
2016-10-27T04:16:24.882Z,1018.04
2016-10-27T04:16:46.612Z,1018.04
2016-10-27T04:17:08.340Z,1018.02
2016-10-27T04:17:30.069Z,1017.79
2016-10-27T04:17:51.796Z,1017.99
2016-10-27T04:18:13.518Z,1018.12
2016-10-27T04:18:35.235Z,1018.10
2016-10-27T04:18:57.956Z,1018.05
2016-10-27T04:19:19.686Z,1017.90
2016-10-27T04:19:42.419Z,1017.80
2016-10-27T04:20:30.640Z,1017.95
2016-10-27T04:20:52.363Z,1017.81
2016-10-27T04:21:14.098Z,1017.96
2016-10-27T04:21:35.825Z,1017.90
2016-10-27T04:21:57.547Z,1017.89
2016-10-27T04:22:19.267Z,1017.94
2016-10-27T04:22:40.988Z,1018.05
2016-10-27T04:23:02.716Z,1018.21
2016-10-27T04:23:24.443Z,1018.01
2016-10-27T04:23:46.162Z,1017.90
2016-10-27T04:24:07.873Z,1018.17
2016-10-27T04:24:29.592Z,1018.05
2016-10-27T04:24:51.311Z,1017.99
2016-10-27T04:25:13.029Z,1017.91
2016-10-27T04:25:34.749Z,1017.90